Time;durP1;ratioP1;P1;durP2;ratioP2;P2;SDS_P1;SDS_P2;PMS_P1;PMS_P2;Temp;Humidity;BMP_temperature;BMP_pressure;BME280_temperature;BME280_humidity;BME280_pressure;Samples;Min_cycle;Max_cycle;Signal;HPM_P1;HPM_P2
2022/05/13 00:01:50;;;;;;;1.95;1.15;;;20.50;93.20;;;;;;4974193;28;20030;-88
2022/05/13 00:04:16;;;;;;;2.55;0.90;;;20.50;93.10;;;;;;4974301;28;20027;-87
2022/05/13 00:06:42;;;;;;;1.30;0.90;;;20.50;93.30;;;;;;4973521;28;20026;-84
2022/05/13 00:09:08;;;;;;;2.45;1.00;;;20.50;93.30;;;;;;4973950;28;20026;-84
2022/05/13 00:11:34;;;;;;;2.05;1.05;;;20.50;93.30;;;;;;4973536;28;20038;-85
2022/05/13 00:13:59;;;;;;;2.83;1.00;;;20.50;93.40;;;;;;4975314;28;20085;-84
2022/05/13 00:16:25;;;;;;;2.15;0.95;;;20.50;93.30;;;;;;4973720;28;20029;-83
2022/05/13 00:18:50;;;;;;;2.20;0.88;;;20.50;93.30;;;;;;4973817;28;20031;-84
2022/05/13 00:21:17;;;;;;;1.83;0.80;;;20.40;93.50;;;;;;4957683;28;20058;-84
2022/05/13 00:23:42;;;;;;;1.70;0.80;;;20.40;93.40;;;;;;4973873;28;20023;-85
2022/05/13 00:26:08;;;;;;;1.38;0.80;;;20.40;93.40;;;;;;4974036;28;20026;-85
2022/05/13 00:28:33;;;;;;;2.90;0.90;;;20.40;93.40;;;;;;4973664;28;20031;-84
2022/05/13 00:31:03;;;;;;;1.92;0.90;;;20.40;93.50;;;;;;4974309;28;20210;-84
2022/05/13 00:33:29;;;;;;;1.42;1.00;;;20.30;93.60;;;;;;4973342;28;20118;-85
2022/05/13 00:35:54;;;;;;;1.33;0.80;;;20.30;93.50;;;;;;4973705;28;20054;-85
2022/05/13 00:38:20;;;;;;;2.08;0.90;;;20.30;93.40;;;;;;4957429;28;20480;-84
2022/05/13 00:40:46;;;;;;;3.65;1.20;;;20.30;93.50;;;;;;4973846;28;20049;-86
2022/05/13 00:43:14;;;;;;;2.85;1.00;;;20.30;93.50;;;;;;4974179;28;20034;-85
2022/05/13 00:45:40;;;;;;;2.53;0.90;;;20.30;93.50;;;;;;4974661;28;20499;-85
2022/05/13 00:48:07;;;;;;;1.83;1.13;;;20.30;93.40;;;;;;4975035;28;20030;-87
2022/05/13 00:50:36;;;;;;;1.67;0.95;;;20.30;93.40;;;;;;4974413;28;20046;-86
2022/05/13 00:53:02;;;;;;;2.63;1.05;;;20.20;93.70;;;;;;4957680;28;20114;-86
2022/05/13 00:55:35;;;;;;;2.30;1.30;;;20.20;94.10;;;;;;4974416;28;20110;-86
2022/05/13 00:58:04;;;;;;;4.22;1.02;;;20.20;93.80;;;;;;4973572;28;20373;-87
2022/05/13 01:00:29;;;;;;;2.65;0.90;;;20.20;93.90;;;;;;4973389;28;20122;-86
2022/05/13 01:02:55;;;;;;;2.83;1.00;;;20.20;94.10;;;;;;4974004;28;20055;-87
2022/05/13 01:05:21;;;;;;;3.17;1.10;;;20.10;94.30;;;;;;4973884;28;20077;-84
2022/05/13 01:07:50;;;;;;;2.97;1.08;;;20.00;94.30;;;;;;4973631;28;20033;-86
2022/05/13 01:10:20;;;;;;;2.67;1.10;;;20.10;94.40;;;;;;4975980;28;20035;-85
2022/05/13 01:12:50;;;;;;;2.65;1.10;;;20.10;94.50;;;;;;4978094;28;20065;-84
2022/05/13 01:15:22;;;;;;;2.80;1.02;;;20.10;94.40;;;;;;4977562;28;20031;-85
2022/05/13 01:18:06;;;;;;;2.83;1.17;;;20.10;94.40;;;;;;4977016;28;20031;-85
2022/05/13 01:20:36;;;;;;;2.97;1.02;;;20.10;94.30;;;;;;4960792;28;20481;-85
2022/05/13 01:23:11;;;;;;;2.00;1.00;;;20.20;94.40;;;;;;4977227;28;20145;-85
2022/05/13 01:25:57;;;;;;;4.05;1.10;;;20.10;94.50;;;;;;4976940;28;20066;-86
2022/05/13 01:28:31;;;;;;;4.18;1.00;;;20.10;94.70;;;;;;4977143;28;20026;-85
2022/05/13 01:31:00;;;;;;;3.28;1.15;;;20.10;95.00;;;;;;4977299;28;20481;-86
2022/05/13 01:33:26;;;;;;;3.47;1.00;;;20.00;94.90;;;;;;4976693;28;20031;-84
2022/05/13 01:35:54;;;;;;;2.92;1.20;;;20.00;94.90;;;;;;4977067;28;20050;-90
2022/05/13 01:38:24;;;;;;;2.28;1.17;;;20.00;94.30;;;;;;4960846;28;20023;-91
2022/05/13 01:40:50;;;;;;;4.00;1.30;;;20.00;94.10;;;;;;4977702;28;20082;-91
2022/05/13 01:43:16;;;;;;;2.78;1.10;;;20.00;93.90;;;;;;4961263;28;20027;-90
2022/05/13 01:45:42;;;;;;;7.05;1.30;;;20.00;93.60;;;;;;4976542;28;20580;-91
2022/05/13 01:48:08;;;;;;;5.32;1.30;;;20.00;93.60;;;;;;4976851;28;20197;-92
2022/05/13 01:50:35;;;;;;;3.88;1.30;;;20.00;93.50;;;;;;4960052;28;20129;-93
2022/05/13 01:53:02;;;;;;;5.55;1.55;;;19.90;93.20;;;;;;4976653;28;20026;-91
2022/05/13 01:55:27;;;;;;;4.45;1.38;;;19.90;92.30;;;;;;4976047;28;20031;-88
2022/05/13 01:57:53;;;;;;;4.32;1.42;;;19.80;92.30;;;;;;4976910;28;20123;-84
2022/05/13 02:00:19;;;;;;;5.28;1.42;;;19.90;92.40;;;;;;4976612;28;20042;-84
2022/05/13 02:05:29;;;;;;;3.08;0.95;;;19.90;92.60;;;;;;4977008;28;20038;-85
2022/05/13 02:07:55;;;;;;;4.63;1.25;;;19.90;93.10;;;;;;4959913;28;20031;-86
2022/05/13 02:10:21;;;;;;;2.38;1.10;;;19.90;93.30;;;;;;4976317;28;20126;-86
2022/05/13 02:12:48;;;;;;;3.03;1.20;;;19.80;93.30;;;;;;4976961;28;20059;-86
2022/05/13 02:15:13;;;;;;;3.80;1.45;;;19.90;93.20;;;;;;4975559;28;20487;-89
2022/05/13 02:17:39;;;;;;;3.95;1.17;;;19.90;93.30;;;;;;4976424;28;20039;-91
2022/05/13 02:20:06;;;;;;;4.97;1.48;;;19.90;93.40;;;;;;4976145;28;20129;-90
2022/05/13 02:22:32;;;;;;;2.38;1.40;;;19.90;93.40;;;;;;4958034;28;20046;-90
2022/05/13 02:24:58;;;;;;;2.13;1.35;;;19.90;93.30;;;;;;4976567;28;20035;-87
2022/05/13 02:27:24;;;;;;;2.05;1.10;;;19.90;93.10;;;;;;4967001;28;20539;-87
2022/05/13 02:29:50;;;;;;;5.47;1.13;;;19.80;93.00;;;;;;4958212;28;20034;-88
2022/05/13 02:32:16;;;;;;;5.43;1.10;;;19.80;92.90;;;;;;4968513;28;20065;-87
2022/05/13 02:34:41;;;;;;;2.70;1.00;;;19.70;92.80;;;;;;4956143;29;20032;-87
2022/05/13 02:37:07;;;;;;;4.20;1.20;;;19.80;92.70;;;;;;4956961;29;20034;-88
2022/05/13 02:39:32;;;;;;;1.83;0.98;;;19.70;92.60;;;;;;4956343;29;20028;-86
2022/05/13 02:41:58;;;;;;;4.22;1.17;;;19.70;92.40;;;;;;4960087;28;20034;-87
2022/05/13 02:44:25;;;;;;;3.78;1.20;;;19.70;92.20;;;;;;4975889;28;20121;-87
2022/05/13 02:46:52;;;;;;;3.72;1.17;;;19.70;92.10;;;;;;4975272;28;20027;-85
2022/05/13 02:49:18;;;;;;;4.57;1.00;;;19.70;92.10;;;;;;4975816;28;20486;-85
2022/05/13 02:51:47;;;;;;;2.83;1.20;;;19.70;92.00;;;;;;4974889;28;20030;-84
2022/05/13 02:54:13;;;;;;;2.97;1.10;;;19.70;92.10;;;;;;4975572;28;20546;-82
2022/05/13 02:56:38;;;;;;;3.17;1.17;;;19.70;92.10;;;;;;4974821;28;20022;-83
2022/05/13 02:59:05;;;;;;;2.80;1.30;;;19.70;92.10;;;;;;4976491;28;20027;-82
2022/05/13 03:01:32;;;;;;;2.33;1.30;;;19.70;92.30;;;;;;4975081;28;20117;-83
2022/05/13 03:03:59;;;;;;;1.95;1.08;;;19.60;92.60;;;;;;4976515;28;20030;-87
2022/05/13 03:06:25;;;;;;;3.75;1.00;;;19.60;92.90;;;;;;4976286;28;20163;-85
2022/05/13 03:08:51;;;;;;;3.05;1.10;;;19.60;93.00;;;;;;4976064;28;20058;-85
2022/05/13 03:11:18;;;;;;;4.00;1.33;;;19.70;93.30;;;;;;4975261;28;20042;-84
2022/05/13 03:13:44;;;;;;;5.32;1.77;;;19.70;93.30;;;;;;4974855;28;20027;-83
2022/05/13 03:16:14;;;;;;;2.85;1.30;;;19.60;93.70;;;;;;4976089;28;20049;-84
2022/05/13 03:18:41;;;;;;;2.80;1.20;;;19.60;94.00;;;;;;4974589;28;20464;-84
2022/05/13 03:21:08;;;;;;;2.80;1.20;;;19.60;93.90;;;;;;4975105;28;20063;-84
2022/05/13 03:23:33;;;;;;;3.85;1.40;;;19.60;94.10;;;;;;4974918;28;20026;-84
2022/05/13 03:25:59;;;;;;;3.13;1.15;;;19.60;94.20;;;;;;4975120;28;20038;-84
2022/05/13 03:28:25;;;;;;;5.30;1.50;;;19.60;94.40;;;;;;4975082;28;20027;-84
2022/05/13 03:30:52;;;;;;;5.10;1.38;;;19.60;94.50;;;;;;4974205;28;20038;-84
2022/05/13 03:33:19;;;;;;;3.85;1.27;;;19.60;94.60;;;;;;4974778;28;20125;-84
2022/05/13 03:35:44;;;;;;;2.47;1.40;;;19.60;94.70;;;;;;4974218;28;20027;-84
2022/05/13 03:38:10;;;;;;;3.65;1.27;;;19.50;94.90;;;;;;4974835;28;20033;-84
2022/05/13 03:40:36;;;;;;;2.90;1.20;;;19.50;95.10;;;;;;4975416;28;20419;-84
2022/05/13 03:43:04;;;;;;;3.75;1.30;;;19.60;95.00;;;;;;4975131;28;20038;-85
2022/05/13 03:45:32;;;;;;;2.40;1.40;;;19.50;94.90;;;;;;4974795;28;20101;-88
2022/05/13 03:48:01;;;;;;;2.70;1.40;;;19.50;95.00;;;;;;4974664;28;20078;-87
2022/05/13 03:50:27;;;;;;;6.00;1.30;;;19.60;94.90;;;;;;4974441;28;20145;-88
2022/05/13 03:52:53;;;;;;;2.50;1.42;;;19.50;95.00;;;;;;4973972;28;20034;-87
2022/05/13 03:55:19;;;;;;;2.92;1.40;;;19.50;95.20;;;;;;4974531;28;20027;-87
2022/05/13 03:57:45;;;;;;;3.50;1.42;;;19.50;95.20;;;;;;4974151;28;20437;-88
2022/05/13 04:00:12;;;;;;;4.57;1.55;;;19.50;95.30;;;;;;4974384;28;20038;-86
2022/05/13 04:02:39;;;;;;;4.35;1.48;;;19.50;95.30;;;;;;4973957;28;20070;-85
2022/05/13 04:10:34;;;;;;;5.35;2.42;;;19.30;96.00;;;;;;4974748;28;20547;-84
2022/05/13 04:16:17;;;;;;;4.97;2.00;;;19.40;96.20;;;;;;4974802;28;20041;-85
2022/05/13 04:18:39;;;;;;;3.92;1.77;;;19.30;96.50;;;;;;4970430;28;20038;-86
2022/05/13 04:21:12;;;;;;;3.22;1.92;;;19.30;96.70;;;;;;4973970;28;20179;-85
2022/05/13 04:23:39;;;;;;;2.72;2.47;;;19.40;97.50;;;;;;4974940;28;20085;-85
2022/05/13 04:26:05;;;;;;;4.70;2.72;;;19.40;97.90;;;;;;4974284;28;20031;-87
2022/05/13 04:28:31;;;;;;;5.30;2.45;;;19.40;98.10;;;;;;4974181;28;20054;-90
2022/05/13 04:31:00;;;;;;;7.20;2.40;;;19.40;98.50;;;;;;4973699;28;20038;-90
2022/05/13 04:33:26;;;;;;;5.20;2.30;;;19.40;98.60;;;;;;4974159;28;20027;-90
2022/05/13 04:35:52;;;;;;;5.07;2.55;;;19.40;98.70;;;;;;4973169;28;20078;-87
2022/05/13 04:38:18;;;;;;;6.85;2.25;;;19.40;98.80;;;;;;4974151;28;20031;-86
2022/05/13 04:40:43;;;;;;;6.55;2.30;;;19.30;99.00;;;;;;4974574;28;20027;-87
2022/05/13 04:43:09;;;;;;;4.13;2.42;;;19.30;99.00;;;;;;4974068;28;20121;-87
2022/05/13 04:45:35;;;;;;;6.43;2.38;;;19.30;99.00;;;;;;4976437;28;20038;-87
2022/05/13 04:48:16;;;;;;;6.03;2.50;;;19.30;98.90;;;;;;4977815;28;20522;-88
2022/05/13 04:51:02;;;;;;;4.35;2.28;;;19.30;99.10;;;;;;4977296;28;20042;-88
2022/05/13 04:53:34;;;;;;;3.70;2.38;;;19.30;99.40;;;;;;4977240;28;20039;-87
2022/05/13 04:56:02;;;;;;;3.90;2.17;;;19.30;99.40;;;;;;4978047;28;20033;-87
2022/05/13 04:58:28;;;;;;;9.18;2.97;;;19.20;99.70;;;;;;4977744;28;20034;-87
2022/05/13 05:00:56;;;;;;;4.88;2.67;;;19.20;99.80;;;;;;4977975;28;20468;-88
2022/05/13 05:03:24;;;;;;;7.50;3.53;;;19.20;99.90;;;;;;4978035;28;20031;-86
2022/05/13 05:05:50;;;;;;;3.60;2.75;;;19.20;99.90;;;;;;4977048;28;20110;-86
2022/05/13 05:08:17;;;;;;;4.47;2.60;;;19.20;99.90;;;;;;4978343;28;20042;-86
2022/05/13 05:10:44;;;;;;;6.65;2.50;;;19.30;99.90;;;;;;4976978;28;20396;-86
2022/05/13 05:13:16;;;;;;;5.32;2.78;;;19.30;99.90;;;;;;4977409;28;20455;-86
2022/05/13 05:15:42;;;;;;;9.90;4.43;;;19.30;99.90;;;;;;4977855;28;20031;-86
2022/05/13 05:18:08;;;;;;;6.22;4.07;;;19.30;99.90;;;;;;4964984;28;20031;-85
2022/05/13 05:20:34;;;;;;;9.40;4.57;;;19.20;99.90;;;;;;4958086;29;20095;-85
2022/05/13 05:23:00;;;;;;;7.25;3.35;;;19.20;99.90;;;;;;4957671;29;20051;-85
2022/05/13 05:25:28;;;;;;;8.98;3.05;;;19.20;99.90;;;;;;4957887;29;20031;-85
2022/05/13 05:27:55;;;;;;;3.95;2.70;;;19.30;99.90;;;;;;4958009;29;20030;-84
2022/05/13 05:30:21;;;;;;;10.45;3.00;;;19.30;99.90;;;;;;4957697;29;20035;-85
2022/05/13 05:32:46;;;;;;;7.05;2.65;;;19.30;99.90;;;;;;4958131;29;20118;-84
2022/05/13 05:35:16;;;;;;;6.85;2.60;;;19.30;99.90;;;;;;4957312;29;20487;-84
2022/05/13 05:37:41;;;;;;;10.55;3.25;;;19.40;99.90;;;;;;4958190;29;20023;-84
2022/05/13 05:40:09;;;;;;;3.83;2.33;;;19.40;99.90;;;;;;4962695;28;20042;-83
2022/05/13 05:42:35;;;;;;;4.57;2.38;;;19.40;99.60;;;;;;4977911;28;20464;-84
2022/05/13 05:45:01;;;;;;;6.32;2.58;;;19.40;99.60;;;;;;4976493;28;20033;-84
2022/05/13 05:47:27;;;;;;;4.28;2.40;;;19.40;99.80;;;;;;4975397;28;20035;-84
2022/05/13 05:49:52;;;;;;;7.18;2.88;;;19.40;99.90;;;;;;4957282;28;20036;-87
2022/05/13 05:52:18;;;;;;;3.15;2.22;;;19.40;99.80;;;;;;4958424;29;20107;-86
2022/05/13 05:57:28;;;;;;;10.32;2.67;;;19.50;99.50;;;;;;4965896;28;20117;-87
2022/05/13 05:59:53;;;;;;;5.00;2.45;;;19.40;99.40;;;;;;4973746;28;20456;-87
2022/05/13 06:02:19;;;;;;;4.53;2.45;;;19.40;99.40;;;;;;4976446;28;20035;-87
2022/05/13 06:04:45;;;;;;;6.30;2.60;;;19.30;99.20;;;;;;4976061;28;20515;-87
2022/05/13 06:07:14;;;;;;;6.47;2.70;;;19.30;99.20;;;;;;4976131;28;20023;-88
2022/05/13 06:09:41;;;;;;;6.00;2.83;;;19.40;99.50;;;;;;4975844;28;20031;-84
2022/05/13 06:12:09;;;;;;;4.93;2.40;;;19.40;99.50;;;;;;4977376;28;20039;-85
2022/05/13 06:14:35;;;;;;;5.50;2.50;;;19.50;99.60;;;;;;4975821;28;20058;-85
2022/05/13 06:17:02;;;;;;;5.57;2.55;;;19.40;99.60;;;;;;4974421;28;20528;-86
2022/05/13 06:19:28;;;;;;;5.57;2.50;;;19.30;99.40;;;;;;4979521;28;20070;-89
2022/05/13 06:21:53;;;;;;;4.88;2.75;;;19.30;99.40;;;;;;4976777;28;20043;-89
2022/05/13 06:24:19;;;;;;;4.35;2.38;;;19.30;99.60;;;;;;4975715;28;20023;-89
2022/05/13 06:26:48;;;;;;;11.23;2.58;;;19.30;99.40;;;;;;4976597;28;20349;-87
2022/05/13 06:29:15;;;;;;;7.50;2.65;;;19.30;98.50;;;;;;4975953;28;20031;-87
2022/05/13 06:31:41;;;;;;;7.53;2.45;;;19.30;98.40;;;;;;4975338;28;20080;-86
2022/05/13 06:34:07;;;;;;;8.90;4.40;;;19.30;98.40;;;;;;4975485;28;20491;-89
2022/05/13 06:36:33;;;;;;;10.52;4.93;;;19.30;97.90;;;;;;4990325;28;20026;-84
2022/05/13 06:38:59;;;;;;;7.43;2.28;;;19.30;98.00;;;;;;4995559;28;20036;-84
2022/05/13 06:41:25;;;;;;;4.50;1.95;;;19.20;98.00;;;;;;4987370;28;20031;-85
2022/05/13 06:43:51;;;;;;;7.38;2.33;;;19.10;97.40;;;;;;4975151;28;20038;-85
2022/05/13 06:46:17;;;;;;;6.97;2.05;;;19.10;97.30;;;;;;4975665;28;20082;-84
2022/05/13 06:48:43;;;;;;;7.70;2.00;;;19.10;97.00;;;;;;4986093;28;20392;-84
2022/05/13 06:51:08;;;;;;;6.70;1.95;;;19.20;96.50;;;;;;4994454;28;20031;-83
2022/05/13 06:53:34;;;;;;;7.75;2.10;;;19.30;96.00;;;;;;4978314;28;20077;-87
2022/05/13 06:56:00;;;;;;;3.10;1.80;;;19.40;95.70;;;;;;4978141;28;20095;-87
2022/05/13 06:58:27;;;;;;;6.50;1.90;;;19.30;95.20;;;;;;4994725;28;20395;-89
2022/05/13 07:00:52;;;;;;;6.72;1.38;;;19.30;95.20;;;;;;4978059;28;20041;-88
2022/05/13 07:03:20;;;;;;;8.05;1.98;;;19.30;95.20;;;;;;4994808;28;20034;-84
2022/05/13 07:05:46;;;;;;;3.75;1.90;;;19.30;94.90;;;;;;4993739;28;20030;-86
2022/05/13 07:08:13;;;;;;;10.30;2.08;;;19.30;94.60;;;;;;4994089;28;20030;-89
2022/05/13 07:10:41;;;;;;;7.53;1.75;;;19.30;94.50;;;;;;4978181;28;20030;-88
2022/05/13 07:13:08;;;;;;;4.55;1.77;;;19.30;94.30;;;;;;4994399;28;20030;-82
2022/05/13 07:15:34;;;;;;;5.15;2.08;;;19.40;94.20;;;;;;4995379;28;20054;-83
2022/05/13 07:18:00;;;;;;;6.57;1.90;;;19.40;93.40;;;;;;4971205;28;20026;-80
2022/05/13 07:20:27;;;;;;;3.40;1.48;;;19.40;93.10;;;;;;4990949;28;20506;-81
2022/05/13 07:22:54;;;;;;;5.15;1.85;;;19.50;93.20;;;;;;4967205;28;20073;-81
2022/05/13 07:25:20;;;;;;;3.88;1.75;;;19.50;93.10;;;;;;4986761;28;20058;-82
2022/05/13 07:27:46;;;;;;;7.25;1.63;;;19.50;92.80;;;;;;4975400;28;20053;-85
2022/05/13 07:30:12;;;;;;;5.65;2.13;;;19.50;92.80;;;;;;4984512;28;20034;-84
2022/05/13 07:32:38;;;;;;;6.05;1.70;;;19.40;92.60;;;;;;4974123;28;20502;-83
2022/05/13 07:35:04;;;;;;;8.90;1.83;;;19.50;92.90;;;;;;4973374;28;20058;-84
2022/05/13 07:37:30;;;;;;;4.43;1.63;;;19.60;92.50;;;;;;4974014;28;20061;-87
2022/05/13 07:42:40;;;;;;;5.97;1.73;;;19.70;92.20;;;;;;4974293;28;20082;-90
2022/05/13 07:45:06;;;;;;;3.90;1.45;;;19.70;92.10;;;;;;4973647;28;20030;-87
2022/05/13 07:47:33;;;;;;;5.32;1.60;;;19.80;91.90;;;;;;4957300;28;20472;-82
2022/05/13 07:49:59;;;;;;;7.93;1.83;;;19.90;91.80;;;;;;4972078;28;20059;-84
2022/05/13 07:52:26;;;;;;;6.20;1.73;;;20.00;91.70;;;;;;4975205;28;20440;-84
2022/05/13 07:54:51;;;;;;;4.85;1.88;;;20.10;91.60;;;;;;4978526;28;20022;-84
2022/05/13 07:57:18;;;;;;;6.68;1.73;;;20.10;91.30;;;;;;4975016;28;20130;-82
2022/05/13 08:02:27;;;;;;;4.82;1.60;;;20.20;91.30;;;;;;4974177;28;20042;-81
2022/05/13 08:04:53;;;;;;;4.80;1.35;;;20.20;90.90;;;;;;4974098;28;20039;-79
2022/05/13 08:07:18;;;;;;;4.20;1.48;;;20.30;90.10;;;;;;4973387;28;20041;-79
2022/05/13 08:09:44;;;;;;;6.30;1.50;;;20.10;89.00;;;;;;4973254;28;20034;-88
2022/05/13 08:12:10;;;;;;;4.60;1.60;;;20.10;87.60;;;;;;4957651;28;20043;-86
2022/05/13 08:14:36;;;;;;;3.47;1.20;;;20.20;86.60;;;;;;4974643;28;20617;-84
2022/05/13 08:17:01;;;;;;;5.43;1.42;;;20.20;85.00;;;;;;4974572;28;20026;-89
2022/05/13 08:19:27;;;;;;;3.58;1.25;;;20.10;84.60;;;;;;4957553;28;20073;-88
2022/05/13 08:21:52;;;;;;;2.88;1.48;;;20.20;84.70;;;;;;4974703;28;20054;-84
2022/05/13 08:24:18;;;;;;;6.97;1.35;;;20.10;84.80;;;;;;4974067;28;20038;-84
2022/05/13 08:26:44;;;;;;;4.72;1.27;;;20.10;84.10;;;;;;4975164;28;20023;-85
2022/05/13 08:29:10;;;;;;;5.50;1.30;;;20.00;85.40;;;;;;4958258;28;20031;-88
2022/05/13 08:31:35;;;;;;;3.28;1.30;;;20.10;85.20;;;;;;4958039;28;20037;-86
2022/05/13 08:34:01;;;;;;;4.85;1.45;;;20.10;84.50;;;;;;4973380;28;20038;-93
2022/05/13 08:36:26;;;;;;;5.53;1.45;;;20.20;85.20;;;;;;4974936;28;20030;-85
2022/05/13 08:38:52;;;;;;;9.65;1.20;;;20.10;83.20;;;;;;4967565;28;20034;-83
2022/05/13 08:41:26;;;;;;;6.45;1.42;;;20.10;83.90;;;;;;4962977;28;20037;-85
2022/05/13 08:44:04;;;;;;;4.97;1.30;;;20.20;84.10;;;;;;4964404;28;20117;-89
2022/05/13 08:46:45;;;;;;;6.97;1.60;;;20.30;84.50;;;;;;4961252;28;20380;-89
2022/05/13 08:49:26;;;;;;;2.50;1.10;;;20.40;84.90;;;;;;4973117;28;20034;-88
2022/05/13 08:53:06;;;;;;;5.10;1.33;;;20.40;84.10;;;;;;4973719;28;20027;-88
2022/05/13 08:54:57;;;;;;;3.97;1.17;;;20.50;84.40;;;;;;4965617;28;20114;-89
2022/05/13 08:57:27;;;;;;;6.53;1.40;;;20.40;84.50;;;;;;4974104;28;20027;-86
2022/05/13 09:00:17;;;;;;;4.43;1.13;;;20.40;83.10;;;;;;4975510;28;20027;-85
2022/05/13 09:03:05;;;;;;;7.32;1.50;;;20.60;83.20;;;;;;4957407;28;20360;-85
2022/05/13 09:05:39;;;;;;;4.88;1.42;;;20.50;81.00;;;;;;4975240;28;20030;-88
2022/05/13 09:08:06;;;;;;;5.25;1.08;;;20.40;81.20;;;;;;4972977;28;20058;-88
2022/05/13 09:10:38;;;;;;;3.72;1.20;;;20.50;80.40;;;;;;4973985;28;20023;-86
2022/05/13 09:13:27;;;;;;;4.40;1.00;;;20.50;77.00;;;;;;4973233;28;20038;-84
2022/05/13 09:15:57;;;;;;;3.13;0.90;;;20.40;76.90;;;;;;4929852;28;20038;-85
2022/05/13 09:18:39;;;;;;;5.82;0.95;;;20.40;76.70;;;;;;4963694;28;20045;-85
2022/05/13 09:21:25;;;;;;;3.88;1.02;;;20.40;76.10;;;;;;4975753;28;20050;-86
2022/05/13 09:23:51;;;;;;;4.97;1.05;;;20.60;75.20;;;;;;4975732;28;20103;-86
2022/05/13 09:26:26;;;;;;;3.67;1.00;;;20.60;76.30;;;;;;4994734;28;20054;-85
2022/05/13 09:29:16;;;;;;;4.15;0.70;;;20.60;78.50;;;;;;4986444;28;20023;-88
2022/05/13 09:31:45;;;;;;;3.95;0.85;;;20.60;77.00;;;;;;4965086;28;20033;-88
2022/05/13 09:34:36;;;;;;;3.63;0.90;;;20.50;74.20;;;;;;4980417;28;20038;-86
2022/05/13 09:37:19;;;;;;;3.08;0.70;;;20.40;73.30;;;;;;4978134;28;20023;-86
2022/05/13 09:39:46;;;;;;;5.88;0.80;;;20.40;72.00;;;;;;4961288;28;20035;-83
2022/05/13 09:42:33;;;;;;;1.80;0.70;;;20.50;74.10;;;;;;4979139;28;20042;-88
2022/05/13 09:45:25;;;;;;;2.80;0.70;;;20.50;73.40;;;;;;4977299;28;20034;-86
2022/05/13 09:48:06;;;;;;;4.75;0.90;;;20.60;72.90;;;;;;4994576;28;20026;-86
2022/05/13 09:50:39;;;;;;;4.10;0.90;;;20.60;71.80;;;;;;4947681;28;20031;-87
2022/05/13 09:53:24;;;;;;;4.07;0.70;;;20.60;71.10;;;;;;4992484;28;20030;-85
2022/05/13 09:55:52;;;;;;;4.03;0.70;;;20.60;70.30;;;;;;4975675;28;20476;-85
2022/05/13 09:58:23;;;;;;;4.15;0.75;;;20.60;70.50;;;;;;4972614;28;20534;-83
2022/05/13 10:01:09;;;;;;;2.40;0.85;;;20.60;71.10;;;;;;4970756;28;20467;-86
2022/05/13 10:03:38;;;;;;;5.40;1.10;;;20.60;70.20;;;;;;4979015;28;20033;-88
2022/05/13 10:06:17;;;;;;;1.60;0.60;;;20.50;69.70;;;;;;4996615;28;20030;-86
2022/05/13 10:13:57;;;;;;;2.50;0.68;;;20.40;67.80;;;;;;4995642;28;20456;-86
2022/05/13 10:14:31;;;;;;;4.20;0.80;;;20.40;68.20;;;;;;4999079;28;20081;-91
2022/05/13 10:17:25;;;;;;;3.63;0.82;;;20.40;68.80;;;;;;5000137;28;20078;-89
2022/05/13 10:20:02;;;;;;;4.13;0.73;;;20.40;68.30;;;;;;4989199;28;20038;-88
2022/05/13 10:22:49;;;;;;;1.15;0.68;;;20.40;68.90;;;;;;4975713;28;20078;-89
2022/05/13 10:25:20;;;;;;;4.47;0.90;;;20.40;69.70;;;;;;4986493;28;20045;-81
2022/05/13 10:27:50;;;;;;;2.30;0.80;;;20.50;68.80;;;;;;4994527;28;20030;-88
2022/05/13 10:30:44;;;;;;;3.97;0.88;;;20.60;68.70;;;;;;4978474;28;20034;-84
2022/05/13 10:33:31;;;;;;;2.63;0.70;;;20.60;67.10;;;;;;4977800;28;20844;-85
2022/05/13 10:36:08;;;;;;;2.05;0.82;;;20.50;66.70;;;;;;4993982;28;20473;-85
2022/05/13 10:38:53;;;;;;;2.72;0.80;;;20.50;68.00;;;;;;4995950;28;20526;-84
2022/05/13 10:41:29;;;;;;;5.28;0.95;;;20.50;68.30;;;;;;4995639;28;20026;-90
2022/05/13 10:44:25;;;;;;;2.13;0.73;;;20.60;66.90;;;;;;4995247;28;20105;-89
2022/05/13 10:46:52;;;;;;;2.45;0.90;;;20.60;64.20;;;;;;4985758;28;20023;-88
2022/05/13 10:49:18;;;;;;;2.80;0.60;;;20.70;65.10;;;;;;4975913;28;20037;-90
2022/05/13 10:51:58;;;;;;;4.72;0.65;;;20.80;65.40;;;;;;4974569;28;20027;-88
2022/05/13 10:54:39;;;;;;;4.65;0.70;;;20.90;65.80;;;;;;4974797;28;20031;-89
2022/05/13 10:57:12;;;;;;;4.15;0.77;;;20.80;65.60;;;;;;4975881;28;20023;-89
2022/05/13 10:59:58;;;;;;;1.30;0.60;;;20.80;64.40;;;;;;4977992;28;20030;-88
2022/05/13 11:02:32;;;;;;;2.10;0.70;;;20.80;62.60;;;;;;4963910;28;20031;-83
2022/05/13 11:05:30;;;;;;;1.75;0.52;;;20.90;62.90;;;;;;4976516;28;20051;-86
2022/05/13 11:08:17;;;;;;;3.72;0.77;;;21.00;63.10;;;;;;4962221;28;20034;-88
2022/05/13 11:11:02;;;;;;;5.22;0.65;;;21.00;62.30;;;;;;4958843;28;20077;-87
2022/05/13 11:13:41;;;;;;;4.43;1.10;;;21.00;62.50;;;;;;4958894;28;20057;-86
2022/05/13 11:16:42;;;;;;;2.92;0.90;;;21.10;63.20;;;;;;4958441;28;20027;-87
2022/05/13 11:19:16;;;;;;;3.20;0.50;;;21.20;63.20;;;;;;4961104;28;20530;-88
2022/05/13 11:21:53;;;;;;;3.30;0.52;;;21.10;62.00;;;;;;4984333;28;20058;-86
2022/05/13 11:27:49;;;;;;;;;;;21.10;58.40;;;;;;4898006;29;20104;-86
2022/05/13 11:30:42;;;;;;;3.50;0.65;;;21.10;58.60;;;;;;4895886;29;19927;-89
2022/05/13 11:33:36;;;;;;;2.80;0.60;;;21.10;58.80;;;;;;4919118;28;20047;-91
2022/05/13 11:36:27;;;;;;;3.15;0.65;;;21.20;59.00;;;;;;4974821;28;20033;-93
2022/05/13 11:39:25;;;;;;;4.30;0.98;;;21.20;59.70;;;;;;4968136;28;20023;-91
2022/05/13 11:41:56;;;;;;;1.83;0.63;;;21.40;62.10;;;;;;4961948;28;20038;-88
2022/05/13 11:44:49;;;;;;;6.15;0.68;;;21.50;61.50;;;;;;4965824;28;20096;-89
2022/05/13 11:47:20;;;;;;;1.85;0.68;;;21.50;60.70;;;;;;4961615;28;20023;-87
2022/05/13 11:49:47;;;;;;;3.13;0.80;;;21.60;60.50;;;;;;4959765;28;20034;-87
2022/05/13 11:52:15;;;;;;;2.78;0.65;;;21.60;59.30;;;;;;4976760;28;20281;-86
2022/05/13 11:54:43;;;;;;;2.30;0.57;;;21.70;60.10;;;;;;4961166;28;20536;-87
2022/05/13 11:57:49;;;;;;;;;;;;;;;;;;;;;
2022/05/13 12:00:36;;;;;;;3.10;0.70;;;21.80;58.40;;;;;;4979926;28;20033;-84
2022/05/13 12:03:15;;;;;;;6.55;0.70;;;21.80;57.60;;;;;;4965212;28;20082;-93
2022/05/13 12:06:00;;;;;;;2.17;0.55;;;21.90;60.60;;;;;;4987298;28;20029;-85
2022/05/13 12:08:48;;;;;;;2.00;1.02;;;22.00;58.30;;;;;;4974601;28;20106;-78
2022/05/13 12:11:35;;;;;;;2.70;0.65;;;22.10;57.20;;;;;;4972726;28;20049;-79
2022/05/13 12:14:10;;;;;;;3.53;0.60;;;22.30;57.70;;;;;;4972204;28;20102;-79
2022/05/13 12:16:42;;;;;;;3.15;0.55;;;22.40;57.50;;;;;;4971150;28;20373;-79
2022/05/13 12:19:45;;;;;;;6.70;0.93;;;22.50;56.20;;;;;;4959862;28;20038;-83
2022/05/13 12:22:34;;;;;;;1.10;0.70;;;22.60;56.40;;;;;;4976445;28;20051;-83
2022/05/13 12:25:08;;;;;;;4.25;0.80;;;22.70;55.50;;;;;;4992860;28;20030;-83
2022/05/13 12:27:42;;;;;;;3.38;0.82;;;22.80;56.00;;;;;;4977092;28;20076;-83
2022/05/13 12:30:12;;;;;;;1.83;0.80;;;22.90;55.70;;;;;;4984227;28;20057;-83
2022/05/13 12:32:48;;;;;;;4.47;0.85;;;22.90;54.00;;;;;;4957063;28;20034;-83
2022/05/13 12:38:18;;;;;;;1.90;0.50;;;23.00;52.90;;;;;;4967089;28;20472;-82
2022/05/13 12:41:14;;;;;;;1.08;0.50;;;23.20;53.30;;;;;;4977291;28;20104;-90
2022/05/13 12:44:06;;;;;;;2.83;0.57;;;23.30;53.50;;;;;;4980171;28;20026;-88
2022/05/13 12:46:47;;;;;;;1.17;0.45;;;23.40;52.70;;;;;;4964130;28;20062;-87
2022/05/13 12:49:25;;;;;;;2.47;0.60;;;23.60;52.90;;;;;;4960349;28;20035;-84
2022/05/13 12:52:12;;;;;;;3.90;1.02;;;23.70;53.20;;;;;;4974536;28;20031;-84
2022/05/13 12:54:50;;;;;;;3.90;0.70;;;23.80;53.40;;;;;;4975365;28;20055;-86
2022/05/13 12:57:27;;;;;;;3.92;0.82;;;24.00;53.30;;;;;;4974700;28;20100;-82
2022/05/13 13:00:25;;;;;;;;;;;;;;;;;;;;;
2022/05/13 13:02:54;;;;;;;1.15;0.40;;;24.10;51.90;;;;;;4976404;28;20105;-85
2022/05/13 13:05:27;;;;;;;1.55;0.47;;;24.20;51.80;;;;;;4976216;28;20030;-87
2022/05/13 13:07:55;;;;;;;6.57;0.80;;;24.30;51.50;;;;;;4977853;28;20496;-82
2022/05/13 13:10:27;;;;;;;4.50;0.60;;;24.40;50.90;;;;;;4998033;28;20034;-82
2022/05/13 13:13:15;;;;;;;2.80;0.75;;;24.50;51.00;;;;;;4964767;28;20045;-81
2022/05/13 13:15:55;;;;;;;1.67;0.52;;;24.60;50.30;;;;;;4997062;28;20054;-87
2022/05/13 13:18:30;;;;;;;0.88;0.30;;;24.80;50.30;;;;;;4962415;29;20071;-86
2022/05/13 13:20:58;;;;;;;2.92;0.60;;;25.10;49.20;;;;;;4983729;28;20030;-87
2022/05/13 13:23:31;;;;;;;4.60;0.75;;;25.20;49.20;;;;;;4980715;28;20054;-86
2022/05/13 13:26:00;;;;;;;4.15;0.65;;;25.60;49.20;;;;;;4975989;28;20026;-83
2022/05/13 13:28:39;;;;;;;3.33;0.80;;;25.90;47.70;;;;;;4976298;28;20125;-82
2022/05/13 13:31:10;;;;;;;2.85;0.50;;;26.20;47.40;;;;;;4975966;28;20041;-85
2022/05/13 13:33:44;;;;;;;1.40;0.40;;;26.50;46.60;;;;;;4977982;28;20054;-85
2022/05/13 13:36:19;;;;;;;3.45;0.60;;;27.00;47.60;;;;;;4976201;28;20042;-83
2022/05/13 13:38:53;;;;;;;5.43;0.50;;;27.40;46.10;;;;;;4976955;28;20365;-83